sensor_id;sensor_type;location;lat;lon;timestamp;temperature;humidity
14359;DHT22;7263;49.418;11.064;2023-05-10T00:05:44;14.30;99.90
14359;DHT22;7263;49.418;11.064;2023-05-10T00:08:14;14.30;99.90
14359;DHT22;7263;49.418;11.064;2023-05-10T00:10:51;14.30;99.90
14359;DHT22;7263;49.418;11.064;2023-05-10T00:13:22;14.30;99.90
14359;DHT22;7263;49.418;11.064;2023-05-10T00:15:57;14.30;99.90
14359;DHT22;7263;49.418;11.064;2023-05-10T00:18:27;14.20;99.90
14359;DHT22;7263;49.418;11.064;2023-05-10T00:20:53;14.20;99.90
14359;DHT22;7263;49.418;11.064;2023-05-10T00:25:54;14.10;99.90
14359;DHT22;7263;49.418;11.064;2023-05-10T00:28:20;14.10;99.90
14359;DHT22;7263;49.418;11.064;2023-05-10T00:30:48;14.00;99.90
14359;DHT22;7263;49.418;11.064;2023-05-10T00:33:21;13.90;99.90
14359;DHT22;7263;49.418;11.064;2023-05-10T00:38:20;13.80;99.90
14359;DHT22;7263;49.418;11.064;2023-05-10T00:40:47;13.70;99.90
14359;DHT22;7263;49.418;11.064;2023-05-10T00:45:41;13.60;99.90
14359;DHT22;7263;49.418;11.064;2023-05-10T00:48:09;13.50;99.90
14359;DHT22;7263;49.418;11.064;2023-05-10T00:50:45;13.50;99.90
14359;DHT22;7263;49.418;11.064;2023-05-10T00:53:15;13.40;99.90
14359;DHT22;7263;49.418;11.064;2023-05-10T00:55:43;13.40;99.90
14359;DHT22;7263;49.418;11.064;2023-05-10T00:58:16;13.40;99.90
14359;DHT22;7263;49.418;11.064;2023-05-10T01:00:49;13.30;99.90
14359;DHT22;7263;49.418;11.064;2023-05-10T01:03:20;13.30;99.90
14359;DHT22;7263;49.418;11.064;2023-05-10T01:05:49;13.20;99.90
14359;DHT22;7263;49.418;11.064;2023-05-10T01:08:22;13.20;99.90
14359;DHT22;7263;49.418;11.064;2023-05-10T01:10:52;13.10;99.90
14359;DHT22;7263;49.418;11.064;2023-05-10T01:13:30;13.10;99.90
14359;DHT22;7263;49.418;11.064;2023-05-10T01:15:58;13.60;99.90
14359;DHT22;7263;49.418;11.064;2023-05-10T01:18:32;13.10;99.90
14359;DHT22;7263;49.418;11.064;2023-05-10T01:21:16;13.10;99.90
14359;DHT22;7263;49.418;11.064;2023-05-10T01:27:18;13.20;99.90
14359;DHT22;7263;49.418;11.064;2023-05-10T01:32:53;13.20;99.90
14359;DHT22;7263;49.418;11.064;2023-05-10T01:35:30;11.90;99.90
14359;DHT22;7263;49.418;11.064;2023-05-10T01:38:04;13.20;99.90
14359;DHT22;7263;49.418;11.064;2023-05-10T01:40:39;13.20;99.90
14359;DHT22;7263;49.418;11.064;2023-05-10T01:43:19;13.20;99.90
14359;DHT22;7263;49.418;11.064;2023-05-10T01:46:02;13.20;99.90
14359;DHT22;7263;49.418;11.064;2023-05-10T01:48:38;13.20;99.90
14359;DHT22;7263;49.418;11.064;2023-05-10T01:51:22;13.20;99.90
14359;DHT22;7263;49.418;11.064;2023-05-10T01:53:59;13.20;99.90
14359;DHT22;7263;49.418;11.064;2023-05-10T01:56:32;13.20;99.90
14359;DHT22;7263;49.418;11.064;2023-05-10T01:59:04;13.30;99.90
14359;DHT22;7263;49.418;11.064;2023-05-10T02:01:36;13.20;99.90
14359;DHT22;7263;49.418;11.064;2023-05-10T02:04:06;13.20;99.90
14359;DHT22;7263;49.418;11.064;2023-05-10T02:06:43;13.20;99.90
14359;DHT22;7263;49.418;11.064;2023-05-10T02:09:12;13.30;99.90
14359;DHT22;7263;49.418;11.064;2023-05-10T02:11:41;13.30;99.90
14359;DHT22;7263;49.418;11.064;2023-05-10T02:14:15;13.30;99.90
14359;DHT22;7263;49.418;11.064;2023-05-10T02:19:12;13.30;99.90
14359;DHT22;7263;49.418;11.064;2023-05-10T02:21:43;13.30;99.90
14359;DHT22;7263;49.418;11.064;2023-05-10T02:24:11;13.30;99.90
14359;DHT22;7263;49.418;11.064;2023-05-10T02:26:38;13.30;99.90
14359;DHT22;7263;49.418;11.064;2023-05-10T02:29:19;13.30;99.90
14359;DHT22;7263;49.418;11.064;2023-05-10T02:31:46;13.30;99.90
14359;DHT22;7263;49.418;11.064;2023-05-10T02:34:15;13.40;99.90
14359;DHT22;7263;49.418;11.064;2023-05-10T02:36:44;13.70;99.90
14359;DHT22;7263;49.418;11.064;2023-05-10T02:39:15;13.30;99.90
14359;DHT22;7263;49.418;11.064;2023-05-10T02:41:45;13.30;99.90
14359;DHT22;7263;49.418;11.064;2023-05-10T02:44:14;13.30;99.90
14359;DHT22;7263;49.418;11.064;2023-05-10T02:51:41;13.30;99.90
14359;DHT22;7263;49.418;11.064;2023-05-10T02:54:18;13.30;99.90
14359;DHT22;7263;49.418;11.064;2023-05-10T02:56:50;13.40;99.90
14359;DHT22;7263;49.418;11.064;2023-05-10T02:59:24;13.40;99.90
14359;DHT22;7263;49.418;11.064;2023-05-10T03:01:56;13.40;99.90
14359;DHT22;7263;49.418;11.064;2023-05-10T03:06:57;13.40;99.90
14359;DHT22;7263;49.418;11.064;2023-05-10T03:11:56;13.30;99.90
14359;DHT22;7263;49.418;11.064;2023-05-10T03:17:30;13.10;99.90
14359;DHT22;7263;49.418;11.064;2023-05-10T03:20:03;13.30;99.90
14359;DHT22;7263;49.418;11.064;2023-05-10T03:22:38;13.20;99.90
14359;DHT22;7263;49.418;11.064;2023-05-10T03:25:14;13.30;99.90
14359;DHT22;7263;49.418;11.064;2023-05-10T03:27:43;13.20;99.90
14359;DHT22;7263;49.418;11.064;2023-05-10T03:30:14;13.20;99.90
14359;DHT22;7263;49.418;11.064;2023-05-10T03:32:41;13.10;99.90
14359;DHT22;7263;49.418;11.064;2023-05-10T03:35:10;10.30;99.90
14359;DHT22;7263;49.418;11.064;2023-05-10T03:37:39;13.10;99.90
14359;DHT22;7263;49.418;11.064;2023-05-10T03:40:07;13.10;99.90
14359;DHT22;7263;49.418;11.064;2023-05-10T03:42:34;13.00;99.90
14359;DHT22;7263;49.418;11.064;2023-05-10T03:45:07;13.00;99.90
14359;DHT22;7263;49.418;11.064;2023-05-10T03:47:37;13.00;99.90
14359;DHT22;7263;49.418;11.064;2023-05-10T03:50:05;13.00;99.90
14359;DHT22;7263;49.418;11.064;2023-05-10T03:52:35;13.00;99.90
14359;DHT22;7263;49.418;11.064;2023-05-10T03:55:14;13.00;99.90
14359;DHT22;7263;49.418;11.064;2023-05-10T03:57:41;13.00;99.90
14359;DHT22;7263;49.418;11.064;2023-05-10T04:00:12;13.00;99.90
14359;DHT22;7263;49.418;11.064;2023-05-10T04:02:39;12.90;99.90
14359;DHT22;7263;49.418;11.064;2023-05-10T04:05:07;12.90;99.90
14359;DHT22;7263;49.418;11.064;2023-05-10T04:07:37;12.90;99.90
14359;DHT22;7263;49.418;11.064;2023-05-10T04:10:08;13.00;99.90
14359;DHT22;7263;49.418;11.064;2023-05-10T04:12:39;13.00;99.90
14359;DHT22;7263;49.418;11.064;2023-05-10T04:15:11;13.00;99.90
14359;DHT22;7263;49.418;11.064;2023-05-10T04:17:38;13.00;99.90
14359;DHT22;7263;49.418;11.064;2023-05-10T04:20:08;13.00;99.90
14359;DHT22;7263;49.418;11.064;2023-05-10T04:22:34;12.90;99.90
14359;DHT22;7263;49.418;11.064;2023-05-10T04:25:05;12.90;99.90
14359;DHT22;7263;49.418;11.064;2023-05-10T04:27:36;12.90;99.90
14359;DHT22;7263;49.418;11.064;2023-05-10T04:30:11;12.90;99.90
14359;DHT22;7263;49.418;11.064;2023-05-10T04:32:38;12.90;99.90
14359;DHT22;7263;49.418;11.064;2023-05-10T04:35:05;12.90;99.90
14359;DHT22;7263;49.418;11.064;2023-05-10T04:37:35;12.90;99.90
14359;DHT22;7263;49.418;11.064;2023-05-10T04:40:02;12.90;99.90
14359;DHT22;7263;49.418;11.064;2023-05-10T04:42:30;12.80;99.90
14359;DHT22;7263;49.418;11.064;2023-05-10T04:45:02;12.90;99.90
14359;DHT22;7263;49.418;11.064;2023-05-10T04:47:33;12.90;99.90
14359;DHT22;7263;49.418;11.064;2023-05-10T04:50:02;12.90;99.90
14359;DHT22;7263;49.418;11.064;2023-05-10T04:52:29;12.90;99.90
14359;DHT22;7263;49.418;11.064;2023-05-10T04:54:56;12.90;99.90
14359;DHT22;7263;49.418;11.064;2023-05-10T04:57:23;12.90;99.90
14359;DHT22;7263;49.418;11.064;2023-05-10T04:59:55;12.90;99.90
14359;DHT22;7263;49.418;11.064;2023-05-10T05:02:22;13.00;99.90
14359;DHT22;7263;49.418;11.064;2023-05-10T05:05:06;13.00;99.90
14359;DHT22;7263;49.418;11.064;2023-05-10T05:07:33;12.90;99.90
14359;DHT22;7263;49.418;11.064;2023-05-10T05:10:03;13.00;99.90
14359;DHT22;7263;49.418;11.064;2023-05-10T05:12:32;13.00;99.90
14359;DHT22;7263;49.418;11.064;2023-05-10T05:15:06;13.00;99.90
14359;DHT22;7263;49.418;11.064;2023-05-10T05:17:34;13.00;99.90
14359;DHT22;7263;49.418;11.064;2023-05-10T05:20:01;13.00;99.90
14359;DHT22;7263;49.418;11.064;2023-05-10T05:22:30;13.00;99.90
14359;DHT22;7263;49.418;11.064;2023-05-10T05:24:57;12.90;99.90
14359;DHT22;7263;49.418;11.064;2023-05-10T05:27:24;13.00;99.90
14359;DHT22;7263;49.418;11.064;2023-05-10T05:29:53;13.10;99.90
14359;DHT22;7263;49.418;11.064;2023-05-10T05:32:22;13.10;99.90
14359;DHT22;7263;49.418;11.064;2023-05-10T05:34:49;13.10;99.90
14359;DHT22;7263;49.418;11.064;2023-05-10T05:37:17;13.20;99.90
14359;DHT22;7263;49.418;11.064;2023-05-10T05:39:46;13.20;99.90
14359;DHT22;7263;49.418;11.064;2023-05-10T05:42:13;13.20;99.90
14359;DHT22;7263;49.418;11.064;2023-05-10T05:44:41;13.20;99.90
14359;DHT22;7263;49.418;11.064;2023-05-10T05:47:09;13.20;99.90
14359;DHT22;7263;49.418;11.064;2023-05-10T05:49:36;13.20;99.90
14359;DHT22;7263;49.418;11.064;2023-05-10T05:52:03;13.30;99.90
14359;DHT22;7263;49.418;11.064;2023-05-10T05:54:34;13.30;99.90
14359;DHT22;7263;49.418;11.064;2023-05-10T05:57:06;13.30;99.90
14359;DHT22;7263;49.418;11.064;2023-05-10T05:59:35;13.40;99.90
14359;DHT22;7263;49.418;11.064;2023-05-10T06:02:02;13.40;99.90
14359;DHT22;7263;49.418;11.064;2023-05-10T06:04:28;13.40;99.90
14359;DHT22;7263;49.418;11.064;2023-05-10T06:06:55;13.40;99.90
14359;DHT22;7263;49.418;11.064;2023-05-10T06:09:28;13.50;99.90
14359;DHT22;7263;49.418;11.064;2023-05-10T06:11:55;13.60;99.90
14359;DHT22;7263;49.418;11.064;2023-05-10T06:14:26;13.60;99.90
14359;DHT22;7263;49.418;11.064;2023-05-10T06:16:58;13.60;99.90
14359;DHT22;7263;49.418;11.064;2023-05-10T06:19:25;13.70;99.90
14359;DHT22;7263;49.418;11.064;2023-05-10T06:21:52;13.70;99.90
14359;DHT22;7263;49.418;11.064;2023-05-10T06:24:19;13.80;99.90
14359;DHT22;7263;49.418;11.064;2023-05-10T06:26:49;13.90;99.90
14359;DHT22;7263;49.418;11.064;2023-05-10T06:29:16;14.00;99.90
14359;DHT22;7263;49.418;11.064;2023-05-10T06:31:47;14.10;99.90
14359;DHT22;7263;49.418;11.064;2023-05-10T06:34:17;14.20;99.90
14359;DHT22;7263;49.418;11.064;2023-05-10T06:36:44;14.20;99.90
14359;DHT22;7263;49.418;11.064;2023-05-10T06:39:11;14.30;99.90
14359;DHT22;7263;49.418;11.064;2023-05-10T06:41:40;14.50;99.90
14359;DHT22;7263;49.418;11.064;2023-05-10T06:44:07;14.70;99.90
14359;DHT22;7263;49.418;11.064;2023-05-10T06:46:37;14.90;99.90
14359;DHT22;7263;49.418;11.064;2023-05-10T06:49:05;14.90;99.90
14359;DHT22;7263;49.418;11.064;2023-05-10T06:51:34;14.90;99.90
14359;DHT22;7263;49.418;11.064;2023-05-10T06:54:00;15.10;99.90
14359;DHT22;7263;49.418;11.064;2023-05-10T06:56:35;15.30;99.90
14359;DHT22;7263;49.418;11.064;2023-05-10T06:59:01;15.50;99.90
14359;DHT22;7263;49.418;11.064;2023-05-10T07:01:28;15.50;99.90
14359;DHT22;7263;49.418;11.064;2023-05-10T07:03:55;15.40;99.90
14359;DHT22;7263;49.418;11.064;2023-05-10T07:06:26;15.50;99.90
14359;DHT22;7263;49.418;11.064;2023-05-10T07:08:55;16.10;99.90
14359;DHT22;7263;49.418;11.064;2023-05-10T07:11:22;15.50;99.90
14359;DHT22;7263;49.418;11.064;2023-05-10T07:13:52;18.30;99.90
14359;DHT22;7263;49.418;11.064;2023-05-10T07:16:21;15.60;99.90
14359;DHT22;7263;49.418;11.064;2023-05-10T07:18:48;15.60;99.90
14359;DHT22;7263;49.418;11.064;2023-05-10T07:21:18;15.60;99.90
14359;DHT22;7263;49.418;11.064;2023-05-10T07:23:46;15.50;99.90
14359;DHT22;7263;49.418;11.064;2023-05-10T07:26:13;15.50;99.90
14359;DHT22;7263;49.418;11.064;2023-05-10T07:28:42;15.50;99.90
14359;DHT22;7263;49.418;11.064;2023-05-10T07:31:11;15.50;99.90
14359;DHT22;7263;49.418;11.064;2023-05-10T07:33:40;11.10;99.90
14359;DHT22;7263;49.418;11.064;2023-05-10T07:36:07;15.30;99.90
14359;DHT22;7263;49.418;11.064;2023-05-10T07:38:37;15.20;99.90
14359;DHT22;7263;49.418;11.064;2023-05-10T07:41:06;15.20;99.90
14359;DHT22;7263;49.418;11.064;2023-05-10T07:43:33;15.10;99.90
14359;DHT22;7263;49.418;11.064;2023-05-10T07:45:59;15.10;99.90
14359;DHT22;7263;49.418;11.064;2023-05-10T07:48:26;15.20;99.90
14359;DHT22;7263;49.418;11.064;2023-05-10T07:50:59;15.20;99.90
14359;DHT22;7263;49.418;11.064;2023-05-10T07:53:30;15.20;99.90
14359;DHT22;7263;49.418;11.064;2023-05-10T07:55:58;15.20;99.90
14359;DHT22;7263;49.418;11.064;2023-05-10T07:58:31;15.10;99.90
14359;DHT22;7263;49.418;11.064;2023-05-10T08:00:58;15.10;99.90
14359;DHT22;7263;49.418;11.064;2023-05-10T08:03:25;15.10;99.90
14359;DHT22;7263;49.418;11.064;2023-05-10T08:05:52;15.10;99.90
14359;DHT22;7263;49.418;11.064;2023-05-10T08:08:18;15.20;99.90
14359;DHT22;7263;49.418;11.064;2023-05-10T08:10:50;15.40;99.90
14359;DHT22;7263;49.418;11.064;2023-05-10T08:13:19;15.60;99.90
14359;DHT22;7263;49.418;11.064;2023-05-10T08:15:47;15.60;99.90
14359;DHT22;7263;49.418;11.064;2023-05-10T08:18:22;15.70;99.90
14359;DHT22;7263;49.418;11.064;2023-05-10T08:20:52;15.80;99.90
14359;DHT22;7263;49.418;11.064;2023-05-10T08:23:19;16.00;99.90
14359;DHT22;7263;49.418;11.064;2023-05-10T08:25:46;16.20;99.90
14359;DHT22;7263;49.418;11.064;2023-05-10T08:28:15;16.30;99.90
14359;DHT22;7263;49.418;11.064;2023-05-10T08:30:52;16.50;99.90
14359;DHT22;7263;49.418;11.064;2023-05-10T08:33:22;16.70;99.90
14359;DHT22;7263;49.418;11.064;2023-05-10T08:35:49;16.90;99.90
14359;DHT22;7263;49.418;11.064;2023-05-10T08:38:17;17.20;99.90
14359;DHT22;7263;49.418;11.064;2023-05-10T08:40:48;17.60;99.90
14359;DHT22;7263;49.418;11.064;2023-05-10T08:43:19;18.00;99.90
14359;DHT22;7263;49.418;11.064;2023-05-10T08:45:49;18.10;99.90
14359;DHT22;7263;49.418;11.064;2023-05-10T08:48:16;18.20;99.90
14359;DHT22;7263;49.418;11.064;2023-05-10T08:50:47;18.20;99.90
14359;DHT22;7263;49.418;11.064;2023-05-10T08:53:24;18.30;99.90
14359;DHT22;7263;49.418;11.064;2023-05-10T08:55:53;18.20;99.90
14359;DHT22;7263;49.418;11.064;2023-05-10T08:58:22;18.00;99.90
14359;DHT22;7263;49.418;11.064;2023-05-10T09:00:52;17.90;99.90
14359;DHT22;7263;49.418;11.064;2023-05-10T09:03:21;17.30;99.90
14359;DHT22;7263;49.418;11.064;2023-05-10T09:05:50;17.00;99.90
14359;DHT22;7263;49.418;11.064;2023-05-10T09:08:17;16.50;99.90
14359;DHT22;7263;49.418;11.064;2023-05-10T09:10:46;15.90;99.90
14359;DHT22;7263;49.418;11.064;2023-05-10T09:13:15;15.10;99.90
14359;DHT22;7263;49.418;11.064;2023-05-10T09:15:59;14.90;99.90
14359;DHT22;7263;49.418;11.064;2023-05-10T09:18:30;14.60;99.90
14359;DHT22;7263;49.418;11.064;2023-05-10T09:20:58;14.50;99.90
14359;DHT22;7263;49.418;11.064;2023-05-10T09:23:25;14.30;99.90
14359;DHT22;7263;49.418;11.064;2023-05-10T09:26:10;14.40;99.90
14359;DHT22;7263;49.418;11.064;2023-05-10T09:28:50;14.50;99.90
14359;DHT22;7263;49.418;11.064;2023-05-10T09:31:21;14.60;99.90
14359;DHT22;7263;49.418;11.064;2023-05-10T09:33:48;14.90;99.90
14359;DHT22;7263;49.418;11.064;2023-05-10T09:36:17;15.00;99.90
14359;DHT22;7263;49.418;11.064;2023-05-10T09:38:51;15.00;99.90
14359;DHT22;7263;49.418;11.064;2023-05-10T09:41:22;15.50;99.90
14359;DHT22;7263;49.418;11.064;2023-05-10T09:43:56;15.90;99.90
14359;DHT22;7263;49.418;11.064;2023-05-10T09:46:25;16.40;99.90
14359;DHT22;7263;49.418;11.064;2023-05-10T09:48:52;16.50;99.90
14359;DHT22;7263;49.418;11.064;2023-05-10T09:51:20;16.60;99.90
14359;DHT22;7263;49.418;11.064;2023-05-10T09:53:47;16.50;99.90
14359;DHT22;7263;49.418;11.064;2023-05-10T09:56:34;16.40;99.90
14359;DHT22;7263;49.418;11.064;2023-05-10T09:59:09;16.50;99.90
14359;DHT22;7263;49.418;11.064;2023-05-10T10:01:38;16.50;99.90
14359;DHT22;7263;49.418;11.064;2023-05-10T10:04:09;17.00;99.90
14359;DHT22;7263;49.418;11.064;2023-05-10T10:06:41;19.30;99.90
14359;DHT22;7263;49.418;11.064;2023-05-10T10:09:08;17.40;99.90
14359;DHT22;7263;49.418;11.064;2023-05-10T10:11:38;17.50;99.90
14359;DHT22;7263;49.418;11.064;2023-05-10T10:14:06;17.20;99.90
14359;DHT22;7263;49.418;11.064;2023-05-10T10:16:33;17.00;99.90
14359;DHT22;7263;49.418;11.064;2023-05-10T10:19:01;16.90;99.90
14359;DHT22;7263;49.418;11.064;2023-05-10T10:21:31;16.80;99.90
14359;DHT22;7263;49.418;11.064;2023-05-10T10:24:02;16.80;99.90
14359;DHT22;7263;49.418;11.064;2023-05-10T10:26:37;16.90;99.90
14359;DHT22;7263;49.418;11.064;2023-05-10T10:29:18;17.10;99.90
14359;DHT22;7263;49.418;11.064;2023-05-10T10:31:51;17.20;99.90
14359;DHT22;7263;49.418;11.064;2023-05-10T10:34:25;17.30;99.90
14359;DHT22;7263;49.418;11.064;2023-05-10T10:36:54;17.50;99.90
14359;DHT22;7263;49.418;11.064;2023-05-10T10:39:32;17.70;99.90
14359;DHT22;7263;49.418;11.064;2023-05-10T10:42:04;17.70;99.90
14359;DHT22;7263;49.418;11.064;2023-05-10T10:44:38;17.50;99.90
14359;DHT22;7263;49.418;11.064;2023-05-10T10:47:24;17.40;99.90
14359;DHT22;7263;49.418;11.064;2023-05-10T10:50:06;17.30;99.90
14359;DHT22;7263;49.418;11.064;2023-05-10T10:52:37;17.10;99.90
14359;DHT22;7263;49.418;11.064;2023-05-10T10:55:11;16.90;99.90
14359;DHT22;7263;49.418;11.064;2023-05-10T10:57:45;16.70;99.90
14359;DHT22;7263;49.418;11.064;2023-05-10T11:00:34;16.70;99.90
14359;DHT22;7263;49.418;11.064;2023-05-10T11:03:04;16.40;99.90
14359;DHT22;7263;49.418;11.064;2023-05-10T11:05:41;16.40;99.90
14359;DHT22;7263;49.418;11.064;2023-05-10T11:08:26;16.40;99.90
14359;DHT22;7263;49.418;11.064;2023-05-10T11:11:05;16.50;99.90
14359;DHT22;7263;49.418;11.064;2023-05-10T11:13:39;16.60;99.90
14359;DHT22;7263;49.418;11.064;2023-05-10T11:16:17;16.70;99.90
14359;DHT22;7263;49.418;11.064;2023-05-10T11:19:01;16.90;99.90
14359;DHT22;7263;49.418;11.064;2023-05-10T11:21:32;17.00;99.90
14359;DHT22;7263;49.418;11.064;2023-05-10T11:24:02;18.80;99.90
14359;DHT22;7263;49.418;11.064;2023-05-10T11:26:34;17.40;99.90
14359;DHT22;7263;49.418;11.064;2023-05-10T11:29:04;17.50;99.90
14359;DHT22;7263;49.418;11.064;2023-05-10T11:31:31;17.60;99.90
14359;DHT22;7263;49.418;11.064;2023-05-10T11:33:59;17.90;99.90
14359;DHT22;7263;49.418;11.064;2023-05-10T11:36:32;18.10;99.90
14359;DHT22;7263;49.418;11.064;2023-05-10T11:38:59;18.30;99.90
14359;DHT22;7263;49.418;11.064;2023-05-10T11:41:28;18.60;99.90
14359;DHT22;7263;49.418;11.064;2023-05-10T11:43:57;18.70;99.90
14359;DHT22;7263;49.418;11.064;2023-05-10T11:46:30;18.50;99.90
14359;DHT22;7263;49.418;11.064;2023-05-10T11:48:59;18.50;99.90
14359;DHT22;7263;49.418;11.064;2023-05-10T11:51:32;18.50;99.90
14359;DHT22;7263;49.418;11.064;2023-05-10T11:53:59;18.20;99.90
14359;DHT22;7263;49.418;11.064;2023-05-10T11:56:28;17.90;99.90
14359;DHT22;7263;49.418;11.064;2023-05-10T11:59:13;17.70;99.90
14359;DHT22;7263;49.418;11.064;2023-05-10T12:01:41;17.70;99.90
14359;DHT22;7263;49.418;11.064;2023-05-10T12:04:08;17.60;99.90
14359;DHT22;7263;49.418;11.064;2023-05-10T12:06:39;17.50;99.90
14359;DHT22;7263;49.418;11.064;2023-05-10T12:09:07;17.40;99.90
14359;DHT22;7263;49.418;11.064;2023-05-10T12:11:37;17.50;99.90
14359;DHT22;7263;49.418;11.064;2023-05-10T12:14:04;17.30;99.90
14359;DHT22;7263;49.418;11.064;2023-05-10T12:16:33;17.30;99.90
14359;DHT22;7263;49.418;11.064;2023-05-10T12:19:00;17.20;99.90
14359;DHT22;7263;49.418;11.064;2023-05-10T12:21:29;17.10;99.90
14359;DHT22;7263;49.418;11.064;2023-05-10T12:24:15;17.20;99.90
14359;DHT22;7263;49.418;11.064;2023-05-10T12:26:44;17.20;99.90
14359;DHT22;7263;49.418;11.064;2023-05-10T12:29:14;17.30;99.90
14359;DHT22;7263;49.418;11.064;2023-05-10T12:31:54;17.30;99.90
14359;DHT22;7263;49.418;11.064;2023-05-10T12:34:25;17.50;99.90
14359;DHT22;7263;49.418;11.064;2023-05-10T12:36:53;17.60;99.90
14359;DHT22;7263;49.418;11.064;2023-05-10T12:41:50;17.90;99.90
14359;DHT22;7263;49.418;11.064;2023-05-10T12:44:24;18.00;99.90
14359;DHT22;7263;49.418;11.064;2023-05-10T12:46:53;18.10;99.90
14359;DHT22;7263;49.418;11.064;2023-05-10T12:49:22;18.20;99.90
14359;DHT22;7263;49.418;11.064;2023-05-10T12:51:49;18.20;99.90
14359;DHT22;7263;49.418;11.064;2023-05-10T12:54:19;18.10;99.90
14359;DHT22;7263;49.418;11.064;2023-05-10T12:56:49;18.10;99.90
14359;DHT22;7263;49.418;11.064;2023-05-10T12:59:20;18.00;99.90
14359;DHT22;7263;49.418;11.064;2023-05-10T13:01:48;18.00;99.90
14359;DHT22;7263;49.418;11.064;2023-05-10T13:04:19;18.10;99.90
14359;DHT22;7263;49.418;11.064;2023-05-10T13:06:46;18.10;99.90
14359;DHT22;7263;49.418;11.064;2023-05-10T13:11:43;17.90;99.90
14359;DHT22;7263;49.418;11.064;2023-05-10T13:14:11;18.00;99.90
14359;DHT22;7263;49.418;11.064;2023-05-10T13:16:38;18.00;99.90
14359;DHT22;7263;49.418;11.064;2023-05-10T13:19:05;18.10;99.90
14359;DHT22;7263;49.418;11.064;2023-05-10T13:21:39;18.30;99.90
14359;DHT22;7263;49.418;11.064;2023-05-10T13:24:10;18.40;99.90
14359;DHT22;7263;49.418;11.064;2023-05-10T13:26:39;18.40;99.90
14359;DHT22;7263;49.418;11.064;2023-05-10T13:29:08;18.50;99.90
14359;DHT22;7263;49.418;11.064;2023-05-10T13:31:35;18.50;99.90
14359;DHT22;7263;49.418;11.064;2023-05-10T13:34:03;18.60;99.90
14359;DHT22;7263;49.418;11.064;2023-05-10T13:36:32;18.70;99.90
14359;DHT22;7263;49.418;11.064;2023-05-10T13:39:01;18.80;99.90
14359;DHT22;7263;49.418;11.064;2023-05-10T13:41:29;19.00;99.90
14359;DHT22;7263;49.418;11.064;2023-05-10T13:43:55;19.00;99.90
14359;DHT22;7263;49.418;11.064;2023-05-10T13:46:22;19.00;99.90
14359;DHT22;7263;49.418;11.064;2023-05-10T13:48:49;18.90;99.90
14359;DHT22;7263;49.418;11.064;2023-05-10T13:51:16;18.90;99.90
14359;DHT22;7263;49.418;11.064;2023-05-10T13:53:43;19.10;99.90
14359;DHT22;7263;49.418;11.064;2023-05-10T13:56:14;19.10;99.90
14359;DHT22;7263;49.418;11.064;2023-05-10T13:58:44;19.10;99.90
14359;DHT22;7263;49.418;11.064;2023-05-10T14:01:14;19.00;99.90
14359;DHT22;7263;49.418;11.064;2023-05-10T14:03:44;19.00;99.90
14359;DHT22;7263;49.418;11.064;2023-05-10T14:06:14;19.10;99.90
14359;DHT22;7263;49.418;11.064;2023-05-10T14:08:41;18.90;99.90
14359;DHT22;7263;49.418;11.064;2023-05-10T14:11:10;19.00;99.90
14359;DHT22;7263;49.418;11.064;2023-05-10T14:13:39;19.00;99.90
14359;DHT22;7263;49.418;11.064;2023-05-10T14:16:10;19.00;99.90
14359;DHT22;7263;49.418;11.064;2023-05-10T14:18:37;19.00;99.90
14359;DHT22;7263;49.418;11.064;2023-05-10T14:21:12;19.00;99.90
14359;DHT22;7263;49.418;11.064;2023-05-10T14:23:44;19.00;99.90
14359;DHT22;7263;49.418;11.064;2023-05-10T14:26:14;19.00;99.90
14359;DHT22;7263;49.418;11.064;2023-05-10T14:28:44;19.00;99.90
14359;DHT22;7263;49.418;11.064;2023-05-10T14:31:17;19.00;99.90
14359;DHT22;7263;49.418;11.064;2023-05-10T14:33:53;18.90;99.90
14359;DHT22;7263;49.418;11.064;2023-05-10T14:36:23;18.90;99.90
14359;DHT22;7263;49.418;11.064;2023-05-10T14:38:51;18.90;99.90
14359;DHT22;7263;49.418;11.064;2023-05-10T14:41:22;19.00;99.90
14359;DHT22;7263;49.418;11.064;2023-05-10T14:43:52;19.10;99.90
14359;DHT22;7263;49.418;11.064;2023-05-10T14:46:26;19.10;99.90
14359;DHT22;7263;49.418;11.064;2023-05-10T14:48:53;19.20;99.90
14359;DHT22;7263;49.418;11.064;2023-05-10T14:51:24;19.20;99.90
14359;DHT22;7263;49.418;11.064;2023-05-10T14:53:51;19.10;99.90
14359;DHT22;7263;49.418;11.064;2023-05-10T14:56:18;19.10;99.90
14359;DHT22;7263;49.418;11.064;2023-05-10T14:58:53;19.10;99.90
14359;DHT22;7263;49.418;11.064;2023-05-10T15:01:20;19.00;99.90
14359;DHT22;7263;49.418;11.064;2023-05-10T15:03:50;18.90;99.90
14359;DHT22;7263;49.418;11.064;2023-05-10T15:06:17;18.90;99.90
14359;DHT22;7263;49.418;11.064;2023-05-10T15:08:52;18.90;99.90
14359;DHT22;7263;49.418;11.064;2023-05-10T15:11:19;18.60;99.90
14359;DHT22;7263;49.418;11.064;2023-05-10T15:13:47;18.60;99.90
14359;DHT22;7263;49.418;11.064;2023-05-10T15:16:24;18.30;99.90
14359;DHT22;7263;49.418;11.064;2023-05-10T15:18:51;18.10;99.90
14359;DHT22;7263;49.418;11.064;2023-05-10T15:23:46;17.70;99.90
14359;DHT22;7263;49.418;11.064;2023-05-10T15:26:13;17.60;99.90
14359;DHT22;7263;49.418;11.064;2023-05-10T15:28:43;17.50;99.90
14359;DHT22;7263;49.418;11.064;2023-05-10T15:31:10;17.30;99.90
14359;DHT22;7263;49.418;11.064;2023-05-10T15:33:40;17.10;99.90
14359;DHT22;7263;49.418;11.064;2023-05-10T15:36:07;16.90;99.90
14359;DHT22;7263;49.418;11.064;2023-05-10T15:38:34;16.90;99.90
14359;DHT22;7263;49.418;11.064;2023-05-10T15:41:02;16.80;99.90
14359;DHT22;7263;49.418;11.064;2023-05-10T15:43:29;16.80;99.90
14359;DHT22;7263;49.418;11.064;2023-05-10T15:45:56;18.80;99.90
14359;DHT22;7263;49.418;11.064;2023-05-10T15:48:23;16.80;99.90
14359;DHT22;7263;49.418;11.064;2023-05-10T15:50:52;16.60;99.90
14359;DHT22;7263;49.418;11.064;2023-05-10T15:53:19;16.60;99.90
14359;DHT22;7263;49.418;11.064;2023-05-10T15:55:46;16.50;99.90
14359;DHT22;7263;49.418;11.064;2023-05-10T15:58:13;16.60;99.90
14359;DHT22;7263;49.418;11.064;2023-05-10T16:00:40;16.60;99.90
14359;DHT22;7263;49.418;11.064;2023-05-10T16:03:07;16.60;99.90
14359;DHT22;7263;49.418;11.064;2023-05-10T16:05:45;16.40;99.90
14359;DHT22;7263;49.418;11.064;2023-05-10T16:08:24;16.40;99.90
14359;DHT22;7263;49.418;11.064;2023-05-10T16:10:51;16.40;99.90
14359;DHT22;7263;49.418;11.064;2023-05-10T16:13:18;16.40;99.90
14359;DHT22;7263;49.418;11.064;2023-05-10T16:15:47;16.40;99.90
14359;DHT22;7263;49.418;11.064;2023-05-10T16:18:25;16.40;99.90
14359;DHT22;7263;49.418;11.064;2023-05-10T16:20:57;16.40;99.90
14359;DHT22;7263;49.418;11.064;2023-05-10T16:23:27;16.30;99.90
14359;DHT22;7263;49.418;11.064;2023-05-10T16:25:54;16.00;99.90
14359;DHT22;7263;49.418;11.064;2023-05-10T16:28:23;16.00;99.90
14359;DHT22;7263;49.418;11.064;2023-05-10T16:30:57;15.90;99.90